CheckWX is a tool to help pilots better visualize weather data.  It is not intended as a substitute for an official pre-flight weather briefing.

00:26:53 UTC

CYQB TAF
Quebec / Jean Lesage International Airport
Quebec, Canada
TAF CYQB 182340Z 1900/1924 28010G20KT P6SM SCT030 TEMPO 1900/1904 BKN030 BECMG 1900/1902 28008KT FM190400 28008KT P6SM SCT020 TEMPO 1904/1918 BKN020 BECMG 1913/1915 27010KT FM191800 27010KT P6SM SCT030 BECMG 1922/1924 28006KT RMK NXT FCST BY 190600Z

Oct-19@
00:00 UTC

Oct-19 @ 00:00 UTC

Oct-20@
00:00 UTC

Oct-20 @ 00:00 UTC

TAF CYQB 182340Z 1900/1924 28010G20KT P6SM SCT030
Wind
  • 280° at 10 KTS
  • {Gusting to 20 KTS
Cloud Levels
  • Scattered at 3,000' AGL

Oct-19@
00:00 UTC

Oct-19 @ 00:00 UTC

Oct-19@
04:00 UTC

Oct-19 @ 04:00 UTC

BECMG 1900/1902 28008KT

Becoming

Becoming Conditions expected by Sat, Oct 19, 2019 @ 02:00 UTC

Wind
  • 280° at 8 KTS
Cloud Levels
  • Scattered at 3,000' AGL

Oct-19@
00:00 UTC

Oct-19 @ 00:00 UTC

Oct-19@
04:00 UTC

Oct-19 @ 04:00 UTC

TEMPO 1900/1904 BKN030

Temporary

Temporary Changes expected for less than half the time period

Cloud Levels
  • Broken at 3,000' AGL

Oct-19@
04:00 UTC

Oct-19 @ 04:00 UTC

Oct-19@
13:00 UTC

Oct-19 @ 13:00 UTC

FM190400 28008KT P6SM SCT020

From

From Standard forecast or significant change

Wind
  • 280° at 8 KTS
Cloud Levels
  • Scattered at 2,000' AGL

Oct-19@
04:00 UTC

Oct-19 @ 04:00 UTC

Oct-19@
18:00 UTC

Oct-19 @ 18:00 UTC

TEMPO 1904/1918 BKN020

Temporary

Temporary Changes expected for less than half the time period

Cloud Levels
  • Broken at 2,000' AGL

Oct-19@
13:00 UTC

Oct-19 @ 13:00 UTC

Oct-19@
18:00 UTC

Oct-19 @ 18:00 UTC

BECMG 1913/1915 27010KT

Becoming

Becoming Conditions expected by Sat, Oct 19, 2019 @ 15:00 UTC

Wind
  • 270° at 10 KTS
Cloud Levels
  • Scattered at 2,000' AGL

Oct-19@
18:00 UTC

Oct-19 @ 18:00 UTC

Oct-19@
22:00 UTC

Oct-19 @ 22:00 UTC

FM191800 27010KT P6SM SCT030

From

From Standard forecast or significant change

Wind
  • 270° at 10 KTS
Cloud Levels
  • Scattered at 3,000' AGL

Oct-19@
22:00 UTC

Oct-19 @ 22:00 UTC

Oct-20@
00:00 UTC

Oct-20 @ 00:00 UTC

BECMG 1922/1924 28006KT RMK NXT FCST BY 190600Z

Becoming

Becoming Conditions expected by Sun, Oct 20, 2019 @ 00:00 UTC

Wind
  • 280° at 6 KTS
Cloud Levels
  • Scattered at 3,000' AGL